Flight Track Log - Related Links

Times and Time Zones

All times are in EDT time to prevent confusion due to time zone crossing. See the UAL4236 flight status page for this flight to view local times or setup timezone preferences in your user account.

Time Position Orientation Groundspeed Altitude Reporting Facility
EDT Latitude Longitude Course Direction KTS MPH feet Rate Location/Type
Tue 12:39:03 PM 31.8006 -106.3933 96° East 167 192 4,500  Level Albuquerque Center
Tue 12:40:11 PM 31.7681 -106.4244 219° Southwest 196 226 6,100 1,523 Climbing Albuquerque Center
Tue 12:41:13 PM 31.7153 -106.3489 129° Southeast 266 306 7,800 1,645 Climbing Albuquerque Center
Tue 12:42:00 PM 31.7356 -105.8270 96° East  Level FlightAware Approximate
Tue 12:42:15 PM 31.6872 -106.2600 110° East 289 333 9,500  Level Albuquerque Center
Tue 12:43:00 PM 31.7179 -105.6918 100° East  Level FlightAware Approximate
Tue 12:43:17 PM 31.6575 -106.1664 110° East 304 350 11,500  Level Albuquerque Center
Tue 12:44:00 PM 31.7051 -105.5559 96° East  Level FlightAware Approximate
Tue 12:44:19 PM 31.6486 -106.0583 95° East 338 389 12,400  Level Albuquerque Center
Tue 12:45:21 PM 31.6408 -105.9378 94° East 367 422 13,200 871 Climbing Albuquerque Center
Tue 12:46:23 PM 31.6319 -105.8108 95° East 387 445 14,200 1,113 Climbing Albuquerque Center
Tue 12:47:25 PM 31.6228 -105.6531 94° East 402 463 15,500 1,113 Climbing Albuquerque Center
Tue 12:48:27 PM 31.6142 -105.5206 94° East 407 468 16,500 1,016 Climbing Albuquerque Center
Tue 12:49:29 PM 31.6047 -105.3850 95° East 415 478 17,600 1,016 Climbing Albuquerque Center
Tue 12:50:31 PM 31.5958 -105.2483 94° East 418 481 18,600 1,016 Climbing Albuquerque Center
Tue 12:51:33 PM 31.5864 -105.1089 95° East 424 488 19,700 1,016 Climbing Albuquerque Center
Tue 12:52:35 PM 31.5767 -104.9681 95° East 430 495 20,700 1,016 Climbing Albuquerque Center
Tue 12:53:37 PM 31.5661 -104.8250 95° East 437 503 21,800 1,065 Climbing Albuquerque Center
Tue 12:54:39 PM 31.5564 -104.6808 94° East 441 507 22,900 1,113 Climbing Albuquerque Center
Tue 12:55:41 PM 31.5433 -104.5064 95° East 445 512 24,100 1,065 Climbing Albuquerque Center
Tue 12:56:43 PM 31.5328 -104.3600 95° East 448 516 25,100 968 Climbing Albuquerque Center
Tue 12:57:45 PM 31.5222 -104.2147 95° East 448 516 26,100 1,016 Climbing Albuquerque Center
Tue 12:58:47 PM 31.5108 -104.0697 95° East 447 514 27,200 1,016 Climbing Albuquerque Center
Tue 12:59:49 PM 31.5000 -103.9256 95° East 445 512 28,200 1,016 Climbing Albuquerque Center
Tue 01:00:51 PM 31.4881 -103.7822 96° East 443 510 29,300 1,016 Climbing Albuquerque Center
Tue 01:01:53 PM 31.4758 -103.6319 95° East 443 510 30,300 1,113 Climbing Albuquerque Center
Tue 01:02:55 PM 31.4572 -103.4603 97° East 443 510 31,600 1,113 Climbing Albuquerque Center
Tue 01:03:57 PM 31.4367 -103.3161 99° East 448 516 32,600 968 Climbing Albuquerque Center
Tue 01:04:59 PM 31.4200 -103.1706 98° East 451 519 33,600 1,016 Climbing Albuquerque Center
Tue 01:06:01 PM 31.4008 -103.0258 99° East 452 520 34,700 677 Climbing Albuquerque Center
Tue 01:07:03 PM 31.3825 -102.8803 98° East 451 519 35,000 145 Climbing Albuquerque Center
Tue 01:08:05 PM 31.3628 -102.7269 99° East 468 539 35,000  Level Albuquerque Center
Tue 01:09:07 PM 31.3381 -102.5361 99° East 489 563 35,000  Level Albuquerque Center
Tue 01:10:09 PM 31.3192 -102.3886 98° East 523 602 35,000  Level Albuquerque Center
Tue 01:11:11 PM 31.2939 -102.1967 99° East 507 583 35,000  Level Albuquerque Center
Tue 01:12:13 PM 31.2728 -102.0375 99° East 501 577 35,000  Level Albuquerque Center
Tue 01:13:15 PM 31.2511 -101.8694 99° East 503 579 35,000  Level Albuquerque Center
Tue 01:14:18 PM 31.2286 -101.7094 99° East 500 575 35,000  Level Albuquerque Center
Tue 01:14:58 PM 31.2161 -101.6156 99° East 498 573 35,000  Level Houston Center
Tue 01:16:00 PM 31.1928 -101.4544 100° East 501 577 35,000  Level Houston Center
Tue 01:17:01 PM 31.1683 -101.2750 99° East 501 577 35,000  Level Houston Center
Tue 01:18:03 PM 31.1475 -101.1131 99° East 505 581 35,000  Level Houston Center
Tue 01:19:05 PM 31.1244 -100.9517 99° East 506 582 35,000  Level Houston Center
Tue 01:20:07 PM 31.1006 -100.7894 100° East 506 582 35,000  Level Houston Center
Tue 01:21:09 PM 31.0778 -100.6264 99° East 508 585 35,000  Level Houston Center
Tue 01:22:11 PM 31.0489 -100.4289 100° East 513 590 35,000  Level Houston Center
Tue 01:23:13 PM 31.0250 -100.2639 100° East 514 592 35,000  Level Houston Center
Tue 01:24:15 PM 31.0000 -100.0983 100° East 518 596 35,000  Level Houston Center
Tue 01:25:16 PM 30.9753 -99.9339 100° East 515 593 35,000  Level Houston Center
Tue 01:26:18 PM 30.9489 -99.7664 100° East 522 601 35,000  Level Houston Center
Tue 01:27:20 PM 30.9247 -99.5994 100° East 524 603 35,000  Level Houston Center
Tue 01:28:22 PM 30.9089 -99.4292 96° East 532 612 35,000  Level Houston Center
Tue 01:29:24 PM 30.9078 -99.2236 90° East 529 609 35,000  Level Houston Center
Tue 01:30:26 PM 30.9042 -99.0572 91° East 531 611 35,000  Level Houston Center
Tue 01:31:28 PM 30.9003 -98.8836 91° East 532 612 35,000  Level Houston Center
Tue 01:32:29 PM 30.8975 -98.7122 91° East 528 608 35,000  Level Houston Center
Tue 01:33:31 PM 30.8931 -98.5408 92° East 526 605 35,000 -774 Level Houston Center
Tue 01:34:33 PM 30.8906 -98.3683 91° East 528 608 33,400 -2,032 Descending Houston Center
Tue 01:35:35 PM 30.8858 -98.1706 92° East 520 598 30,800 -1,984 Descending Houston Center
Tue 01:36:37 PM 30.8833 -98.0100 91° East 497 572 29,300 -871 Descending Houston Center
Tue 01:37:39 PM 30.8789 -97.8500 92° East 492 566 29,000 -387 Descending Houston Center
Tue 01:38:41 PM 30.8739 -97.6925 92° East 485 558 28,500 -726 Descending Houston Center
Tue 01:39:43 PM 30.8683 -97.5308 92° East 494 568 27,500 -726 Descending Houston Center
Tue 01:40:45 PM 30.8617 -97.3675 93° East 505 581 27,000 -244 Descending Houston Center
Tue 01:41:46 PM 30.8214 -97.1953 105° East 486 559 27,000  Level Houston Center
Tue 01:42:48 PM 30.7817 -97.0450 107° East 486 559 27,000  Level Houston Center
Tue 01:43:50 PM 30.7383 -96.8919 108° East 493 567 27,000 -581 Level Houston Center
Tue 01:44:52 PM 30.6947 -96.7364 108° East 503 579 25,800 -1,935 Descending Houston Center
Tue 01:45:54 PM 30.6525 -96.5850 108° East 490 564 23,000 -2,758 Descending Houston Center
Tue 01:46:56 PM 30.6161 -96.4414 106° East 469 540 20,100 -2,855 Descending Houston Center
Tue 01:47:58 PM 30.5783 -96.3089 108° East 439 505 17,100 -3,122 Descending Houston Center
Tue 01:48:59 PM 30.5372 -96.1606 108° East 416 479 13,700 -2,927 Descending Houston Center
Tue 01:50:01 PM 30.5047 -96.0436 108° East 388 447 11,100 -1,831 Descending Houston Center
Tue 01:50:57 PM 30.4667 -95.9461 114° Southeast 347 399 10,100 -589 Descending Houston Center
Tue 01:51:53 PM 30.3872 -95.9022 155° Southeast 343 395 10,000 -46 Descending Houston Center
Tue 01:53:07 PM 30.2811 -95.8639 163° South 343 395 10,000 -472 Level Houston Center
Tue 01:54:00 PM 30.2100 -95.8406 164° South 274 315 9,000 -1,252 Descending Houston Center
Tue 01:55:02 PM 30.1383 -95.8150 163° South 266 306 7,600 -1,415 Descending Houston Center
Tue 01:56:03 PM 30.0669 -95.7919 164° South 260 299 6,100 -1,406 Descending Houston Center
Tue 01:57:10 PM 30.0103 -95.7431 143° Southeast 245 282 4,600 -1,031 Descending Houston Center
Tue 01:58:11 PM 29.9908 -95.6656 106° East 250 288 3,900 -344 Descending Houston Center
Tue 01:59:12 PM 29.9942 -95.5856 87° East 242 278 3,900 -590 Level Houston Center
Tue 02:00:13 PM 29.9933 -95.5061 91° East 239 275 2,700 -1,128 Descending Houston Center
Tue 02:01:09 PM 29.9919 -95.4461 92° East 191 220 1,700 -1,071 Descending Houston Center

Login

Don't have an account? Register now (free) for customized features, flight alerts, and more!